Terminal Aerodrome Forecast
Issued by NWS

Current Version | Previous Version | Text Only | Print | Product List | Glossary On
Versions: 1 2 3 4 5 6 7 8 9 10 11 12
000
FTUS43 KICT 221100
TAFHUT
TAF
KHUT 221138Z 2212/2312 17010KT P6SM SCT100 BKN250
     FM221600 19015G22KT P6SM SCT070
     FM230000 17010KT P6SM SCT130=

USA.gov is the U.S. government's official web portal to all federal, state and local government web resources and services.